sensor_id;sensor_type;location;lat;lon;timestamp;temperature;humidity
47590;DHT22;33316;52.298;9.056;2022-09-03T00:02:12;18.20;49.20
47590;DHT22;33316;52.298;9.056;2022-09-03T00:04:48;18.20;49.20
47590;DHT22;33316;52.298;9.056;2022-09-03T00:07:33;18.10;49.20
47590;DHT22;33316;52.298;9.056;2022-09-03T00:10:04;18.10;49.40
47590;DHT22;33316;52.298;9.056;2022-09-03T00:12:36;18.10;49.40
47590;DHT22;33316;52.298;9.056;2022-09-03T00:15:12;18.10;49.50
47590;DHT22;33316;52.298;9.056;2022-09-03T00:17:59;18.00;49.60
47590;DHT22;33316;52.298;9.056;2022-09-03T00:20:53;18.00;49.60
47590;DHT22;33316;52.298;9.056;2022-09-03T00:23:21;18.00;49.80
47590;DHT22;33316;52.298;9.056;2022-09-03T00:28:49;17.90;49.80
47590;DHT22;33316;52.298;9.056;2022-09-03T00:31:27;17.90;49.90
47590;DHT22;33316;52.298;9.056;2022-09-03T00:33:59;17.90;49.90
47590;DHT22;33316;52.298;9.056;2022-09-03T00:36:42;17.90;49.90
47590;DHT22;33316;52.298;9.056;2022-09-03T00:39:19;17.90;49.80
47590;DHT22;33316;52.298;9.056;2022-09-03T00:53:10;17.90;50.00
47590;DHT22;33316;52.298;9.056;2022-09-03T00:56:04;17.90;50.00
47590;DHT22;33316;52.298;9.056;2022-09-03T00:58:54;17.90;50.10
47590;DHT22;33316;52.298;9.056;2022-09-03T01:04:00;17.80;50.10
47590;DHT22;33316;52.298;9.056;2022-09-03T01:06:31;17.80;50.30
47590;DHT22;33316;52.298;9.056;2022-09-03T01:11:55;17.80;50.40
47590;DHT22;33316;52.298;9.056;2022-09-03T01:14:42;17.80;50.50
47590;DHT22;33316;52.298;9.056;2022-09-03T01:17:38;17.70;50.60
47590;DHT22;33316;52.298;9.056;2022-09-03T01:23:11;17.60;51.40
47590;DHT22;33316;52.298;9.056;2022-09-03T01:26:27;17.70;50.70
47590;DHT22;33316;52.298;9.056;2022-09-03T01:34:30;17.50;51.10
47590;DHT22;33316;52.298;9.056;2022-09-03T01:37:10;17.50;51.10
47590;DHT22;33316;52.298;9.056;2022-09-03T01:51:11;17.30;51.80
47590;DHT22;33316;52.298;9.056;2022-09-03T01:59:46;17.30;51.90
47590;DHT22;33316;52.298;9.056;2022-09-03T02:02:22;17.30;51.90
47590;DHT22;33316;52.298;9.056;2022-09-03T02:05:08;17.30;52.00
47590;DHT22;33316;52.298;9.056;2022-09-03T02:07:37;17.20;52.10
47590;DHT22;33316;52.298;9.056;2022-09-03T02:10:06;17.20;52.00
47590;DHT22;33316;52.298;9.056;2022-09-03T02:12:34;17.20;52.10
47590;DHT22;33316;52.298;9.056;2022-09-03T02:15:09;17.20;52.10
47590;DHT22;33316;52.298;9.056;2022-09-03T02:17:36;17.20;52.10
47590;DHT22;33316;52.298;9.056;2022-09-03T02:20:08;17.20;52.10
47590;DHT22;33316;52.298;9.056;2022-09-03T02:22:36;17.20;52.20
47590;DHT22;33316;52.298;9.056;2022-09-03T02:25:03;17.20;52.10
47590;DHT22;33316;52.298;9.056;2022-09-03T02:27:29;17.20;52.20
47590;DHT22;33316;52.298;9.056;2022-09-03T02:29:56;17.20;52.30
47590;DHT22;33316;52.298;9.056;2022-09-03T02:32:22;17.20;52.30
47590;DHT22;33316;52.298;9.056;2022-09-03T02:34:48;17.10;52.30
47590;DHT22;33316;52.298;9.056;2022-09-03T02:37:15;17.10;52.40
47590;DHT22;33316;52.298;9.056;2022-09-03T02:39:41;17.10;52.50
47590;DHT22;33316;52.298;9.056;2022-09-03T02:42:08;17.10;52.60
47590;DHT22;33316;52.298;9.056;2022-09-03T02:44:37;17.10;52.70
47590;DHT22;33316;52.298;9.056;2022-09-03T02:47:06;17.00;52.80
47590;DHT22;33316;52.298;9.056;2022-09-03T02:49:32;17.00;52.80
47590;DHT22;33316;52.298;9.056;2022-09-03T02:52:00;17.00;52.90
47590;DHT22;33316;52.298;9.056;2022-09-03T02:54:26;16.90;53.00
47590;DHT22;33316;52.298;9.056;2022-09-03T02:56:53;16.90;53.00
47590;DHT22;33316;52.298;9.056;2022-09-03T02:59:19;16.90;53.10
47590;DHT22;33316;52.298;9.056;2022-09-03T03:01:46;16.90;53.10
47590;DHT22;33316;52.298;9.056;2022-09-03T03:04:12;16.90;53.20
47590;DHT22;33316;52.298;9.056;2022-09-03T03:06:38;16.90;53.20
47590;DHT22;33316;52.298;9.056;2022-09-03T03:09:03;16.90;53.30
47590;DHT22;33316;52.298;9.056;2022-09-03T03:11:30;16.90;53.40
47590;DHT22;33316;52.298;9.056;2022-09-03T03:13:56;16.90;53.40
47590;DHT22;33316;52.298;9.056;2022-09-03T03:16:22;16.80;53.50
47590;DHT22;33316;52.298;9.056;2022-09-03T03:18:47;16.80;53.60
47590;DHT22;33316;52.298;9.056;2022-09-03T03:21:15;16.80;53.80
47590;DHT22;33316;52.298;9.056;2022-09-03T03:23:41;16.80;53.80
47590;DHT22;33316;52.298;9.056;2022-09-03T03:26:14;16.80;53.90
47590;DHT22;33316;52.298;9.056;2022-09-03T03:28:40;16.80;53.90
47590;DHT22;33316;52.298;9.056;2022-09-03T03:31:12;16.90;53.80
47590;DHT22;33316;52.298;9.056;2022-09-03T03:33:39;16.80;53.80
47590;DHT22;33316;52.298;9.056;2022-09-03T03:36:10;16.80;53.90
47590;DHT22;33316;52.298;9.056;2022-09-03T03:38:36;16.80;54.10
47590;DHT22;33316;52.298;9.056;2022-09-03T03:41:09;16.80;54.20
47590;DHT22;33316;52.298;9.056;2022-09-03T03:43:35;16.80;54.20
47590;DHT22;33316;52.298;9.056;2022-09-03T03:46:00;16.70;54.20
47590;DHT22;33316;52.298;9.056;2022-09-03T03:48:26;16.70;54.10
47590;DHT22;33316;52.298;9.056;2022-09-03T03:50:52;16.70;54.20
47590;DHT22;33316;52.298;9.056;2022-09-03T03:53:18;16.70;54.20
47590;DHT22;33316;52.298;9.056;2022-09-03T03:55:54;16.70;54.30
47590;DHT22;33316;52.298;9.056;2022-09-03T03:58:20;16.70;54.40
47590;DHT22;33316;52.298;9.056;2022-09-03T04:00:45;16.70;54.40
47590;DHT22;33316;52.298;9.056;2022-09-03T04:03:13;16.70;54.40
47590;DHT22;33316;52.298;9.056;2022-09-03T04:05:39;16.70;54.40
47590;DHT22;33316;52.298;9.056;2022-09-03T04:08:05;16.70;54.40
47590;DHT22;33316;52.298;9.056;2022-09-03T04:10:31;16.70;54.60
47590;DHT22;33316;52.298;9.056;2022-09-03T04:12:56;16.60;54.60
47590;DHT22;33316;52.298;9.056;2022-09-03T04:15:22;16.60;54.70
47590;DHT22;33316;52.298;9.056;2022-09-03T04:17:47;16.60;54.90
47590;DHT22;33316;52.298;9.056;2022-09-03T04:20:13;16.50;55.00
47590;DHT22;33316;52.298;9.056;2022-09-03T04:22:38;16.40;55.00
47590;DHT22;33316;52.298;9.056;2022-09-03T04:25:04;16.40;55.30
47590;DHT22;33316;52.298;9.056;2022-09-03T04:27:30;16.40;55.40
47590;DHT22;33316;52.298;9.056;2022-09-03T04:29:56;16.30;55.50
47590;DHT22;33316;52.298;9.056;2022-09-03T04:32:21;16.30;55.70
47590;DHT22;33316;52.298;9.056;2022-09-03T04:35:05;16.20;55.80
47590;DHT22;33316;52.298;9.056;2022-09-03T04:37:31;16.10;56.00
47590;DHT22;33316;52.298;9.056;2022-09-03T04:39:57;16.10;56.20
47590;DHT22;33316;52.298;9.056;2022-09-03T04:42:23;16.00;56.20
47590;DHT22;33316;52.298;9.056;2022-09-03T04:44:49;16.00;56.40
47590;DHT22;33316;52.298;9.056;2022-09-03T04:47:14;16.00;56.50
47590;DHT22;33316;52.298;9.056;2022-09-03T04:49:40;15.90;56.60
47590;DHT22;33316;52.298;9.056;2022-09-03T04:52:06;15.90;56.70
47590;DHT22;33316;52.298;9.056;2022-09-03T04:54:31;15.80;56.70
47590;DHT22;33316;52.298;9.056;2022-09-03T04:56:57;15.80;56.80
47590;DHT22;33316;52.298;9.056;2022-09-03T04:59:22;15.80;56.80
47590;DHT22;33316;52.298;9.056;2022-09-03T05:01:48;15.90;56.90
47590;DHT22;33316;52.298;9.056;2022-09-03T05:04:13;15.80;57.00
47590;DHT22;33316;52.298;9.056;2022-09-03T05:06:39;15.80;57.80
47590;DHT22;33316;52.298;9.056;2022-09-03T05:09:05;15.80;57.10
47590;DHT22;33316;52.298;9.056;2022-09-03T05:11:31;15.70;57.20
47590;DHT22;33316;52.298;9.056;2022-09-03T05:13:58;15.80;57.30
47590;DHT22;33316;52.298;9.056;2022-09-03T05:16:25;15.70;57.40
47590;DHT22;33316;52.298;9.056;2022-09-03T05:18:54;15.80;57.50
47590;DHT22;33316;52.298;9.056;2022-09-03T05:21:20;15.80;57.60
47590;DHT22;33316;52.298;9.056;2022-09-03T05:23:47;15.80;57.60
47590;DHT22;33316;52.298;9.056;2022-09-03T05:26:17;15.80;57.50
47590;DHT22;33316;52.298;9.056;2022-09-03T05:28:43;15.90;57.50
47590;DHT22;33316;52.298;9.056;2022-09-03T05:31:17;16.00;57.50
47590;DHT22;33316;52.298;9.056;2022-09-03T05:33:45;16.00;57.50
47590;DHT22;33316;52.298;9.056;2022-09-03T05:36:13;16.20;57.40
47590;DHT22;33316;52.298;9.056;2022-09-03T05:38:40;16.20;57.30
47590;DHT22;33316;52.298;9.056;2022-09-03T05:41:09;16.40;57.20
47590;DHT22;33316;52.298;9.056;2022-09-03T05:43:35;16.50;57.10
47590;DHT22;33316;52.298;9.056;2022-09-03T05:46:09;16.60;56.90
47590;DHT22;33316;52.298;9.056;2022-09-03T05:48:36;16.70;56.70
47590;DHT22;33316;52.298;9.056;2022-09-03T05:51:07;16.80;56.60
47590;DHT22;33316;52.298;9.056;2022-09-03T05:53:35;16.90;56.40
47590;DHT22;33316;52.298;9.056;2022-09-03T05:56:03;17.00;56.30
47590;DHT22;33316;52.298;9.056;2022-09-03T05:58:34;17.10;56.20
47590;DHT22;33316;52.298;9.056;2022-09-03T06:01:12;17.10;56.10
47590;DHT22;33316;52.298;9.056;2022-09-03T06:03:39;17.30;56.00
47590;DHT22;33316;52.298;9.056;2022-09-03T06:06:05;17.40;55.90
47590;DHT22;33316;52.298;9.056;2022-09-03T06:08:31;17.50;55.70
47590;DHT22;33316;52.298;9.056;2022-09-03T06:10:58;17.60;55.60
47590;DHT22;33316;52.298;9.056;2022-09-03T06:13:24;17.70;55.50
47590;DHT22;33316;52.298;9.056;2022-09-03T06:15:54;17.70;55.30
47590;DHT22;33316;52.298;9.056;2022-09-03T06:18:20;17.80;55.20
47590;DHT22;33316;52.298;9.056;2022-09-03T06:20:53;17.90;55.10
47590;DHT22;33316;52.298;9.056;2022-09-03T06:23:19;17.90;55.00
47590;DHT22;33316;52.298;9.056;2022-09-03T06:25:44;18.00;54.90
47590;DHT22;33316;52.298;9.056;2022-09-03T06:28:10;18.00;54.90
47590;DHT22;33316;52.298;9.056;2022-09-03T06:30:36;18.00;54.80
47590;DHT22;33316;52.298;9.056;2022-09-03T06:33:01;18.10;54.90
47590;DHT22;33316;52.298;9.056;2022-09-03T06:35:27;18.10;54.80
47590;DHT22;33316;52.298;9.056;2022-09-03T06:37:52;18.10;54.60
47590;DHT22;33316;52.298;9.056;2022-09-03T06:40:18;18.20;54.70
47590;DHT22;33316;52.298;9.056;2022-09-03T06:42:55;18.20;54.60
47590;DHT22;33316;52.298;9.056;2022-09-03T06:45:25;18.20;54.50
47590;DHT22;33316;52.298;9.056;2022-09-03T06:47:50;18.30;54.40
47590;DHT22;33316;52.298;9.056;2022-09-03T06:50:16;18.40;54.30
47590;DHT22;33316;52.298;9.056;2022-09-03T06:52:42;18.40;54.20
47590;DHT22;33316;52.298;9.056;2022-09-03T06:55:08;18.50;54.10
47590;DHT22;33316;52.298;9.056;2022-09-03T06:57:34;18.60;54.00
47590;DHT22;33316;52.298;9.056;2022-09-03T06:59:59;18.70;53.90
47590;DHT22;33316;52.298;9.056;2022-09-03T07:02:27;18.80;53.90
47590;DHT22;33316;52.298;9.056;2022-09-03T07:04:52;18.80;53.80
47590;DHT22;33316;52.298;9.056;2022-09-03T07:07:18;18.90;53.70
47590;DHT22;33316;52.298;9.056;2022-09-03T07:09:44;19.00;53.70
47590;DHT22;33316;52.298;9.056;2022-09-03T07:12:09;19.00;53.50
47590;DHT22;33316;52.298;9.056;2022-09-03T07:14:36;19.10;53.40
47590;DHT22;33316;52.298;9.056;2022-09-03T07:17:01;19.10;53.30
47590;DHT22;33316;52.298;9.056;2022-09-03T07:19:27;19.20;53.30
47590;DHT22;33316;52.298;9.056;2022-09-03T07:21:52;19.30;53.20
47590;DHT22;33316;52.298;9.056;2022-09-03T07:24:19;19.40;53.10
47590;DHT22;33316;52.298;9.056;2022-09-03T07:26:46;19.50;53.00
47590;DHT22;33316;52.298;9.056;2022-09-03T07:29:13;19.50;52.30
47590;DHT22;33316;52.298;9.056;2022-09-03T07:31:41;19.50;51.80
47590;DHT22;33316;52.298;9.056;2022-09-03T07:34:12;19.50;51.70
47590;DHT22;33316;52.298;9.056;2022-09-03T07:36:47;19.60;51.50
47590;DHT22;33316;52.298;9.056;2022-09-03T07:39:15;19.60;51.30
47590;DHT22;33316;52.298;9.056;2022-09-03T07:41:42;19.60;51.10
47590;DHT22;33316;52.298;9.056;2022-09-03T07:44:10;19.60;51.00
47590;DHT22;33316;52.298;9.056;2022-09-03T07:46:36;19.60;51.10
47590;DHT22;33316;52.298;9.056;2022-09-03T07:49:03;19.70;51.10
47590;DHT22;33316;52.298;9.056;2022-09-03T07:51:34;19.70;51.20
47590;DHT22;33316;52.298;9.056;2022-09-03T07:54:02;19.80;51.10
47590;DHT22;33316;52.298;9.056;2022-09-03T07:56:29;19.80;50.90
47590;DHT22;33316;52.298;9.056;2022-09-03T07:58:56;19.80;50.90
47590;DHT22;33316;52.298;9.056;2022-09-03T08:01:23;19.90;51.00
47590;DHT22;33316;52.298;9.056;2022-09-03T08:03:50;19.90;51.10
47590;DHT22;33316;52.298;9.056;2022-09-03T08:06:18;20.00;51.10
47590;DHT22;33316;52.298;9.056;2022-09-03T08:08:44;20.00;51.00
47590;DHT22;33316;52.298;9.056;2022-09-03T08:11:12;20.00;51.00
47590;DHT22;33316;52.298;9.056;2022-09-03T08:13:42;20.10;50.80
47590;DHT22;33316;52.298;9.056;2022-09-03T08:16:13;20.10;50.90
47590;DHT22;33316;52.298;9.056;2022-09-03T08:18:39;20.10;50.00
47590;DHT22;33316;52.298;9.056;2022-09-03T08:21:07;20.20;49.70
47590;DHT22;33316;52.298;9.056;2022-09-03T08:23:36;20.30;49.30
47590;DHT22;33316;52.298;9.056;2022-09-03T08:26:02;20.40;49.20
47590;DHT22;33316;52.298;9.056;2022-09-03T08:28:28;20.40;49.20
47590;DHT22;33316;52.298;9.056;2022-09-03T08:30:54;20.50;49.10
47590;DHT22;33316;52.298;9.056;2022-09-03T08:33:20;20.60;49.10
47590;DHT22;33316;52.298;9.056;2022-09-03T08:38:31;20.70;48.90
47590;DHT22;33316;52.298;9.056;2022-09-03T08:41:04;20.70;48.40
47590;DHT22;33316;52.298;9.056;2022-09-03T08:43:31;20.80;47.90
47590;DHT22;33316;52.298;9.056;2022-09-03T08:46:01;20.80;48.20
47590;DHT22;33316;52.298;9.056;2022-09-03T08:48:27;20.90;48.20
47590;DHT22;33316;52.298;9.056;2022-09-03T08:50:55;20.90;47.90
47590;DHT22;33316;52.298;9.056;2022-09-03T08:53:48;20.90;47.40
47590;DHT22;33316;52.298;9.056;2022-09-03T08:56:30;21.00;47.40
47590;DHT22;33316;52.298;9.056;2022-09-03T08:58:56;21.00;47.50
47590;DHT22;33316;52.298;9.056;2022-09-03T09:07:29;21.20;47.60
47590;DHT22;33316;52.298;9.056;2022-09-03T09:10:16;21.20;46.80
47590;DHT22;33316;52.298;9.056;2022-09-03T09:15:29;21.30;46.60
47590;DHT22;33316;52.298;9.056;2022-09-03T09:20:52;21.40;45.90
47590;DHT22;33316;52.298;9.056;2022-09-03T09:23:47;21.40;46.10
47590;DHT22;33316;52.298;9.056;2022-09-03T09:26:18;21.40;46.00
47590;DHT22;33316;52.298;9.056;2022-09-03T09:28:47;21.50;46.00
47590;DHT22;33316;52.298;9.056;2022-09-03T09:31:18;21.50;45.70
47590;DHT22;33316;52.298;9.056;2022-09-03T09:33:44;21.60;45.90
47590;DHT22;33316;52.298;9.056;2022-09-03T09:36:13;21.60;45.70
47590;DHT22;33316;52.298;9.056;2022-09-03T09:38:44;21.60;45.60
47590;DHT22;33316;52.298;9.056;2022-09-03T09:41:18;21.70;45.50
47590;DHT22;33316;52.298;9.056;2022-09-03T09:43:45;21.70;45.60
47590;DHT22;33316;52.298;9.056;2022-09-03T09:46:22;21.70;45.60
47590;DHT22;33316;52.298;9.056;2022-09-03T09:48:57;21.80;45.50
47590;DHT22;33316;52.298;9.056;2022-09-03T09:51:27;21.80;45.60
47590;DHT22;33316;52.298;9.056;2022-09-03T09:54:14;21.90;45.40
47590;DHT22;33316;52.298;9.056;2022-09-03T09:56:43;21.80;45.20
47590;DHT22;33316;52.298;9.056;2022-09-03T09:59:11;21.90;45.50
47590;DHT22;33316;52.298;9.056;2022-09-03T10:01:38;22.00;45.50
47590;DHT22;33316;52.298;9.056;2022-09-03T10:04:13;22.00;45.50
47590;DHT22;33316;52.298;9.056;2022-09-03T10:06:52;22.10;45.60
47590;DHT22;33316;52.298;9.056;2022-09-03T10:09:27;22.10;44.90
47590;DHT22;33316;52.298;9.056;2022-09-03T10:14:29;22.20;45.20
47590;DHT22;33316;52.298;9.056;2022-09-03T10:20:02;22.20;45.20
47590;DHT22;33316;52.298;9.056;2022-09-03T10:23:34;22.30;45.20
47590;DHT22;33316;52.298;9.056;2022-09-03T10:28:34;22.40;44.80
47590;DHT22;33316;52.298;9.056;2022-09-03T10:36:30;22.60;44.40
47590;DHT22;33316;52.298;9.056;2022-09-03T10:39:09;22.60;44.50
47590;DHT22;33316;52.298;9.056;2022-09-03T10:50:22;22.80;44.10
47590;DHT22;33316;52.298;9.056;2022-09-03T10:52:58;22.80;43.70
47590;DHT22;33316;52.298;9.056;2022-09-03T11:07:11;23.00;43.60
47590;DHT22;33316;52.298;9.056;2022-09-03T11:09:41;23.10;43.20
47590;DHT22;33316;52.298;9.056;2022-09-03T11:12:20;23.20;43.20
47590;DHT22;33316;52.298;9.056;2022-09-03T11:15:31;23.20;42.90
47590;DHT22;33316;52.298;9.056;2022-09-03T11:18:02;23.20;43.00
47590;DHT22;33316;52.298;9.056;2022-09-03T11:20:29;23.20;42.80
47590;DHT22;33316;52.298;9.056;2022-09-03T11:22:58;23.30;42.90
47590;DHT22;33316;52.298;9.056;2022-09-03T11:25:30;23.30;42.80
47590;DHT22;33316;52.298;9.056;2022-09-03T11:33:48;23.30;42.90
47590;DHT22;33316;52.298;9.056;2022-09-03T11:36:25;23.40;43.00
47590;DHT22;33316;52.298;9.056;2022-09-03T11:38:53;23.50;42.70
47590;DHT22;33316;52.298;9.056;2022-09-03T11:41:25;23.50;42.50
47590;DHT22;33316;52.298;9.056;2022-09-03T11:43:52;23.50;42.40
47590;DHT22;33316;52.298;9.056;2022-09-03T11:54:03;23.70;42.00
47590;DHT22;33316;52.298;9.056;2022-09-03T11:56:31;23.80;41.70
47590;DHT22;33316;52.298;9.056;2022-09-03T11:59:18;23.80;41.60
47590;DHT22;33316;52.298;9.056;2022-09-03T12:01:50;23.80;41.20
47590;DHT22;33316;52.298;9.056;2022-09-03T12:04:20;23.90;41.10
47590;DHT22;33316;52.298;9.056;2022-09-03T12:10:01;24.00;41.30
47590;DHT22;33316;52.298;9.056;2022-09-03T12:12:49;24.10;40.70
47590;DHT22;33316;52.298;9.056;2022-09-03T12:15:38;24.10;40.20
47590;DHT22;33316;52.298;9.056;2022-09-03T12:18:14;24.10;40.30
47590;DHT22;33316;52.298;9.056;2022-09-03T12:20:44;24.10;40.20
47590;DHT22;33316;52.298;9.056;2022-09-03T12:23:46;24.20;40.20
47590;DHT22;33316;52.298;9.056;2022-09-03T12:26:21;24.20;39.70
47590;DHT22;33316;52.298;9.056;2022-09-03T12:28:51;24.20;39.50
47590;DHT22;33316;52.298;9.056;2022-09-03T12:33:53;24.20;39.60
47590;DHT22;33316;52.298;9.056;2022-09-03T12:36:21;24.30;39.50
47590;DHT22;33316;52.298;9.056;2022-09-03T12:38:47;24.40;39.10
47590;DHT22;33316;52.298;9.056;2022-09-03T12:43:50;24.40;39.00
47590;DHT22;33316;52.298;9.056;2022-09-03T12:46:16;24.50;38.90
47590;DHT22;33316;52.298;9.056;2022-09-03T12:48:59;24.50;38.90
47590;DHT22;33316;52.298;9.056;2022-09-03T12:51:40;24.60;38.60
47590;DHT22;33316;52.298;9.056;2022-09-03T12:54:09;24.60;38.50
47590;DHT22;33316;52.298;9.056;2022-09-03T12:56:48;24.70;38.80
47590;DHT22;33316;52.298;9.056;2022-09-03T12:59:18;24.70;38.50
47590;DHT22;33316;52.298;9.056;2022-09-03T13:01:48;24.70;38.70
47590;DHT22;33316;52.298;9.056;2022-09-03T13:04:22;24.80;38.60
47590;DHT22;33316;52.298;9.056;2022-09-03T13:07:04;24.90;38.40
47590;DHT22;33316;52.298;9.056;2022-09-03T13:09:34;24.90;38.20
47590;DHT22;33316;52.298;9.056;2022-09-03T13:12:01;25.00;38.30
47590;DHT22;33316;52.298;9.056;2022-09-03T13:14:45;25.00;38.20
47590;DHT22;33316;52.298;9.056;2022-09-03T13:17:25;25.10;37.80
47590;DHT22;33316;52.298;9.056;2022-09-03T13:20:24;25.10;37.70
47590;DHT22;33316;52.298;9.056;2022-09-03T13:28:44;25.10;37.60
47590;DHT22;33316;52.298;9.056;2022-09-03T13:31:35;25.20;37.60
47590;DHT22;33316;52.298;9.056;2022-09-03T13:34:06;25.20;37.30
47590;DHT22;33316;52.298;9.056;2022-09-03T13:36:41;25.20;37.90
47590;DHT22;33316;52.298;9.056;2022-09-03T13:42:02;25.40;37.60
47590;DHT22;33316;52.298;9.056;2022-09-03T13:44:41;25.40;37.40
47590;DHT22;33316;52.298;9.056;2022-09-03T13:47:27;25.50;37.00
47590;DHT22;33316;52.298;9.056;2022-09-03T13:50:06;25.50;36.70
47590;DHT22;33316;52.298;9.056;2022-09-03T13:58:40;25.50;36.90
47590;DHT22;33316;52.298;9.056;2022-09-03T14:00:46;25.50;37.00
47590;DHT22;33316;52.298;9.056;2022-09-03T14:03:35;25.50;37.00
47590;DHT22;33316;52.298;9.056;2022-09-03T14:09:29;25.50;36.70
47590;DHT22;33316;52.298;9.056;2022-09-03T14:12:13;25.50;36.40
47590;DHT22;33316;52.298;9.056;2022-09-03T14:17:51;25.50;36.70
47590;DHT22;33316;52.298;9.056;2022-09-03T14:20:24;25.50;37.10
47590;DHT22;33316;52.298;9.056;2022-09-03T14:23:02;25.50;36.20
47590;DHT22;33316;52.298;9.056;2022-09-03T14:25:28;25.50;36.90
47590;DHT22;33316;52.298;9.056;2022-09-03T14:28:10;25.50;36.90
47590;DHT22;33316;52.298;9.056;2022-09-03T14:30:48;25.40;36.40
47590;DHT22;33316;52.298;9.056;2022-09-03T14:33:30;25.30;36.00
47590;DHT22;33316;52.298;9.056;2022-09-03T14:36:18;25.30;36.10
47590;DHT22;33316;52.298;9.056;2022-09-03T14:39:26;25.20;36.20
47590;DHT22;33316;52.298;9.056;2022-09-03T14:45:07;25.20;36.40
47590;DHT22;33316;52.298;9.056;2022-09-03T14:47:56;25.10;36.70
47590;DHT22;33316;52.298;9.056;2022-09-03T14:50:37;25.10;36.60
47590;DHT22;33316;52.298;9.056;2022-09-03T14:54:15;25.00;36.40
47590;DHT22;33316;52.298;9.056;2022-09-03T14:56:39;25.00;36.80
47590;DHT22;33316;52.298;9.056;2022-09-03T15:01:37;25.00;37.00
47590;DHT22;33316;52.298;9.056;2022-09-03T15:04:32;25.00;36.90
47590;DHT22;33316;52.298;9.056;2022-09-03T15:09:56;24.90;36.60
47590;DHT22;33316;52.298;9.056;2022-09-03T15:12:40;24.90;36.50
47590;DHT22;33316;52.298;9.056;2022-09-03T15:15:09;24.80;36.40
47590;DHT22;33316;52.298;9.056;2022-09-03T15:20:31;24.70;36.20
47590;DHT22;33316;52.298;9.056;2022-09-03T15:23:23;24.70;36.60
47590;DHT22;33316;52.298;9.056;2022-09-03T15:31:50;24.60;36.70
47590;DHT22;33316;52.298;9.056;2022-09-03T15:36:51;24.60;36.70
47590;DHT22;33316;52.298;9.056;2022-09-03T15:39:29;24.60;36.60
47590;DHT22;33316;52.298;9.056;2022-09-03T15:41:58;24.50;36.70
47590;DHT22;33316;52.298;9.056;2022-09-03T15:44:27;24.50;37.00
47590;DHT22;33316;52.298;9.056;2022-09-03T15:47:02;24.50;36.80
47590;DHT22;33316;52.298;9.056;2022-09-03T15:49:53;24.50;36.90
47590;DHT22;33316;52.298;9.056;2022-09-03T15:55:43;24.50;36.90
47590;DHT22;33316;52.298;9.056;2022-09-03T15:58:22;24.50;36.60
47590;DHT22;33316;52.298;9.056;2022-09-03T16:01:10;24.50;36.90
47590;DHT22;33316;52.298;9.056;2022-09-03T16:04:00;24.50;36.50
47590;DHT22;33316;52.298;9.056;2022-09-03T16:15:25;24.50;36.40
47590;DHT22;33316;52.298;9.056;2022-09-03T16:23:31;24.40;36.80
47590;DHT22;33316;52.298;9.056;2022-09-03T16:26:10;24.40;36.90
47590;DHT22;33316;52.298;9.056;2022-09-03T16:43:19;24.30;36.00
47590;DHT22;33316;52.298;9.056;2022-09-03T16:49:02;24.20;36.20
47590;DHT22;33316;52.298;9.056;2022-09-03T16:57:59;24.10;36.40
47590;DHT22;33316;52.298;9.056;2022-09-03T17:00:48;24.00;36.10
47590;DHT22;33316;52.298;9.056;2022-09-03T17:09:25;24.00;36.40
47590;DHT22;33316;52.298;9.056;2022-09-03T17:14:52;23.90;36.80
47590;DHT22;33316;52.298;9.056;2022-09-03T17:25:35;23.80;36.90
47590;DHT22;33316;52.298;9.056;2022-09-03T17:34:57;23.60;36.50
47590;DHT22;33316;52.298;9.056;2022-09-03T17:37:28;23.60;36.90
47590;DHT22;33316;52.298;9.056;2022-09-03T17:45:47;23.40;36.90
47590;DHT22;33316;52.298;9.056;2022-09-03T17:48:37;23.40;37.10
47590;DHT22;33316;52.298;9.056;2022-09-03T17:51:08;23.30;37.10
47590;DHT22;33316;52.298;9.056;2022-09-03T17:53:44;23.30;36.80
47590;DHT22;33316;52.298;9.056;2022-09-03T17:56:21;23.20;37.30
47590;DHT22;33316;52.298;9.056;2022-09-03T18:01:43;23.10;37.30
47590;DHT22;33316;52.298;9.056;2022-09-03T18:07:09;23.00;37.40
47590;DHT22;33316;52.298;9.056;2022-09-03T18:12:31;22.90;37.70
47590;DHT22;33316;52.298;9.056;2022-09-03T18:15:06;22.90;38.00
47590;DHT22;33316;52.298;9.056;2022-09-03T18:18:40;22.90;38.00
47590;DHT22;33316;52.298;9.056;2022-09-03T18:20:57;22.80;37.90
47590;DHT22;33316;52.298;9.056;2022-09-03T18:24:03;22.80;38.10
47590;DHT22;33316;52.298;9.056;2022-09-03T18:26:59;22.70;38.20
47590;DHT22;33316;52.298;9.056;2022-09-03T18:29:49;22.70;38.40
47590;DHT22;33316;52.298;9.056;2022-09-03T18:32:37;22.60;38.50
47590;DHT22;33316;52.298;9.056;2022-09-03T18:35:21;22.60;38.50
47590;DHT22;33316;52.298;9.056;2022-09-03T18:38:06;22.60;38.60
47590;DHT22;33316;52.298;9.056;2022-09-03T18:44:02;22.50;38.60
47590;DHT22;33316;52.298;9.056;2022-09-03T18:47:06;22.40;38.70
47590;DHT22;33316;52.298;9.056;2022-09-03T18:53:31;22.30;39.00
47590;DHT22;33316;52.298;9.056;2022-09-03T19:05:47;22.10;39.40
47590;DHT22;33316;52.298;9.056;2022-09-03T19:11:46;22.00;39.60
47590;DHT22;33316;52.298;9.056;2022-09-03T19:14:55;22.00;39.80
47590;DHT22;33316;52.298;9.056;2022-09-03T19:21:21;21.90;39.90
47590;DHT22;33316;52.298;9.056;2022-09-03T19:24:10;21.80;39.90
47590;DHT22;33316;52.298;9.056;2022-09-03T19:26:57;21.80;40.00
47590;DHT22;33316;52.298;9.056;2022-09-03T19:32:57;21.70;40.20
47590;DHT22;33316;52.298;9.056;2022-09-03T19:36:02;21.60;40.30
47590;DHT22;33316;52.298;9.056;2022-09-03T19:42:30;21.60;40.40
47590;DHT22;33316;52.298;9.056;2022-09-03T19:48:45;21.50;40.60
47590;DHT22;33316;52.298;9.056;2022-09-03T19:51:39;21.50;40.70
47590;DHT22;33316;52.298;9.056;2022-09-03T19:54:26;21.40;40.80
47590;DHT22;33316;52.298;9.056;2022-09-03T19:57:13;21.40;40.90
47590;DHT22;33316;52.298;9.056;2022-09-03T19:59:59;21.40;41.00
47590;DHT22;33316;52.298;9.056;2022-09-03T20:02:46;21.30;41.10
47590;DHT22;33316;52.298;9.056;2022-09-03T20:05:31;21.30;41.90
47590;DHT22;33316;52.298;9.056;2022-09-03T20:08:16;21.20;41.20
47590;DHT22;33316;52.298;9.056;2022-09-03T20:11:01;21.20;41.40
47590;DHT22;33316;52.298;9.056;2022-09-03T20:13:28;21.10;41.40
47590;DHT22;33316;52.298;9.056;2022-09-03T20:16:31;21.10;41.50
47590;DHT22;33316;52.298;9.056;2022-09-03T20:19:22;21.10;41.60
47590;DHT22;33316;52.298;9.056;2022-09-03T20:21:58;21.00;41.60
47590;DHT22;33316;52.298;9.056;2022-09-03T20:30:21;20.90;41.90
47590;DHT22;33316;52.298;9.056;2022-09-03T20:33:04;20.90;42.00
47590;DHT22;33316;52.298;9.056;2022-09-03T20:38:41;20.90;42.20
47590;DHT22;33316;52.298;9.056;2022-09-03T20:41:16;20.80;42.20
47590;DHT22;33316;52.298;9.056;2022-09-03T20:47:19;20.80;42.40
47590;DHT22;33316;52.298;9.056;2022-09-03T20:50:09;20.70;42.40
47590;DHT22;33316;52.298;9.056;2022-09-03T20:52:41;20.70;42.50
47590;DHT22;33316;52.298;9.056;2022-09-03T20:55:13;20.70;42.60